createdAt,value
2023-03-15T00:00:04.466Z,97592.88
2023-03-15T00:05:07.630Z,97611.78
2023-03-15T00:10:10.989Z,97623.16
2023-03-15T00:15:16.478Z,97631.03
2023-03-15T00:20:19.937Z,97650.97
2023-03-15T00:25:22.723Z,97659.66
2023-03-15T00:30:25.342Z,97668.09
2023-03-15T00:35:27.779Z,97683.50
2023-03-15T00:40:30.573Z,97680.13
2023-03-15T00:45:33.646Z,97688.19
2023-03-15T00:50:36.018Z,97692.63
2023-03-15T00:55:38.489Z,97704.25
2023-03-15T01:00:41.541Z,97725.06
2023-03-15T01:05:45.252Z,97720.94
2023-03-15T01:10:47.669Z,97721.47
2023-03-15T01:15:50.124Z,97734.72
2023-03-15T01:20:53.003Z,97731.63
2023-03-15T01:25:55.389Z,97748.84
2023-03-15T01:30:59.838Z,97739.63
2023-03-15T01:36:07.519Z,97746.56
2023-03-15T01:41:15.831Z,97752.72
2023-03-15T01:46:26.550Z,97746.53
2023-03-15T01:51:37.646Z,97755.75
2023-03-15T01:56:45.692Z,97764.25
2023-03-15T02:01:49.395Z,97776.00
2023-03-15T02:06:59.179Z,97784.09
2023-03-15T02:12:06.035Z,97794.34
2023-03-15T02:17:08.932Z,97785.56
2023-03-15T02:22:26.207Z,97787.88
2023-03-15T02:27:34.636Z,97792.41
2023-03-15T02:32:37.194Z,97797.72
2023-03-15T02:37:39.882Z,97804.09
2023-03-15T02:42:42.620Z,97816.25
2023-03-15T02:47:46.761Z,97829.38
2023-03-15T02:52:49.192Z,97832.31
2023-03-15T02:57:51.832Z,97846.78
2023-03-15T03:02:56.078Z,97861.75
2023-03-15T03:07:58.790Z,97871.91
2023-03-15T03:13:01.919Z,97878.81
2023-03-15T03:18:08.960Z,97888.06
2023-03-15T03:23:11.445Z,97891.00
2023-03-15T03:28:14.061Z,97903.22
2023-03-15T03:33:16.844Z,97910.06
2023-03-15T03:38:22.385Z,97915.44
2023-03-15T03:43:30.821Z,97921.59
2023-03-15T03:48:33.849Z,97928.38
2023-03-15T03:53:36.268Z,97935.94
2023-03-15T03:58:40.167Z,97942.88
2023-03-15T04:03:56.844Z,97952.47
2023-03-15T04:09:02.764Z,97961.16
2023-03-15T04:14:13.383Z,97974.16
2023-03-15T04:19:17.562Z,97976.38
2023-03-15T04:24:20.660Z,97977.88
2023-03-15T04:29:44.231Z,97980.25
2023-03-15T04:35:05.740Z,97990.25
2023-03-15T04:40:42.871Z,97988.94
2023-03-15T04:46:14.492Z,98002.31
2023-03-15T04:51:37.390Z,97999.84
2023-03-15T04:56:52.961Z,97997.50
2023-03-15T05:02:20.685Z,98007.81
2023-03-15T05:07:58.565Z,98001.56
2023-03-15T05:13:24.385Z,98000.78
2023-03-15T05:18:54.144Z,98000.31
2023-03-15T05:24:28.956Z,98002.72
2023-03-15T05:29:43.731Z,97998.47
2023-03-15T05:35:15.098Z,98002.25
2023-03-15T05:40:36.141Z,98015.44
2023-03-15T05:45:50.688Z,98019.94
2023-03-15T05:51:28.383Z,98013.78
2023-03-15T05:56:42.635Z,98028.53
2023-03-15T06:02:05.345Z,98022.19
2023-03-15T06:07:16.906Z,98022.03
2023-03-15T06:12:20.096Z,98026.38
2023-03-15T06:17:23.172Z,98032.97
2023-03-15T06:22:25.789Z,98033.59
2023-03-15T06:27:32.677Z,98042.38
2023-03-15T06:32:35.578Z,98048.19
2023-03-15T06:37:38.629Z,98046.72
2023-03-15T06:42:41.814Z,98051.34
2023-03-15T06:47:47.124Z,98056.91
2023-03-15T06:52:51.457Z,98058.28
2023-03-15T06:57:54.352Z,98057.53
2023-03-15T07:02:56.985Z,98060.41
2023-03-15T07:07:59.506Z,98063.38
2023-03-15T07:13:01.958Z,98063.53
2023-03-15T07:18:04.690Z,98073.53
2023-03-15T07:23:07.142Z,98071.09
2023-03-15T07:28:09.674Z,98079.50
2023-03-15T07:33:12.209Z,98095.72
2023-03-15T07:38:14.838Z,98092.53
2023-03-15T07:43:17.683Z,98100.38
2023-03-15T07:48:23.069Z,98100.72
2023-03-15T07:53:25.962Z,98096.31
2023-03-15T07:58:28.500Z,98089.97
2023-03-15T08:03:31.626Z,98098.34
2023-03-15T08:08:34.134Z,98104.34
2023-03-15T08:13:36.714Z,98112.03
2023-03-15T08:18:39.276Z,98101.00
2023-03-15T08:23:41.741Z,98103.78
2023-03-15T08:28:44.392Z,98105.22
2023-03-15T08:33:47.953Z,98108.00
2023-03-15T08:38:51.285Z,98106.00
2023-03-15T08:43:54.089Z,98114.16
2023-03-15T08:48:57.143Z,98111.69
2023-03-15T08:54:04.093Z,98111.31
2023-03-15T08:59:06.850Z,98118.63
2023-03-15T09:04:09.371Z,98123.38
2023-03-15T09:09:11.915Z,98131.56
2023-03-15T09:14:14.445Z,98126.16
2023-03-15T09:19:16.943Z,98139.19
2023-03-15T09:24:19.578Z,98139.34
2023-03-15T09:29:22.432Z,98146.59
2023-03-15T09:34:27.382Z,98146.22
2023-03-15T09:39:33.450Z,98151.38
2023-03-15T09:44:54.469Z,98159.53
2023-03-15T09:50:06.374Z,98153.34
2023-03-15T09:55:18.598Z,98166.28
2023-03-15T10:00:30.907Z,98167.84
2023-03-15T10:05:49.002Z,98160.25
2023-03-15T10:11:08.292Z,98156.91
2023-03-15T10:16:26.472Z,98155.00
2023-03-15T10:21:42.561Z,98146.91
2023-03-15T10:32:17.813Z,98152.34
2023-03-15T10:37:23.944Z,98149.38
2023-03-15T10:42:33.891Z,98140.66
2023-03-15T10:47:50.439Z,98141.28
2023-03-15T10:52:58.312Z,98137.09
2023-03-15T10:58:19.131Z,98136.78
2023-03-15T11:03:26.255Z,98131.03
2023-03-15T11:08:43.540Z,98144.09
2023-03-15T11:14:01.102Z,98140.88
2023-03-15T11:19:12.128Z,98144.47
2023-03-15T11:24:25.894Z,98137.88
2023-03-15T11:29:37.976Z,98123.97
2023-03-15T11:34:40.790Z,98125.34
2023-03-15T11:40:05.034Z,98134.31
2023-03-15T11:45:29.579Z,98130.50
2023-03-15T11:50:59.377Z,98125.25
2023-03-15T11:56:23.235Z,98130.69
2023-03-15T12:01:27.624Z,98133.69
2023-03-15T12:06:38.075Z,98136.34
2023-03-15T12:11:42.631Z,98135.94
2023-03-15T12:16:47.038Z,98135.75
2023-03-15T12:21:58.768Z,98132.34
2023-03-15T12:27:06.488Z,98137.00
2023-03-15T12:32:13.664Z,98127.13
2023-03-15T12:37:18.962Z,98127.50
2023-03-15T12:42:33.035Z,98132.50
2023-03-15T12:47:51.234Z,98117.75
2023-03-15T12:52:59.790Z,98132.75
2023-03-15T12:58:04.880Z,98141.53
2023-03-15T13:03:19.549Z,98139.81
2023-03-15T13:08:25.727Z,98161.69
2023-03-15T13:13:48.651Z,98151.28
2023-03-15T13:19:14.914Z,98154.19
2023-03-15T13:24:34.112Z,98143.75
2023-03-15T13:29:37.330Z,98146.41
2023-03-15T13:34:40.859Z,98154.63
2023-03-15T13:39:55.840Z,98159.56
2023-03-15T13:45:11.512Z,98168.03
2023-03-15T13:50:16.746Z,98175.75
2023-03-15T13:55:34.812Z,98168.03
2023-03-15T14:00:38.061Z,98178.66
2023-03-15T14:05:52.576Z,98181.47
2023-03-15T14:11:18.437Z,98175.66
2023-03-15T14:17:03.159Z,98162.69
2023-03-15T14:22:19.321Z,98138.94
2023-03-15T14:27:26.588Z,98138.19
2023-03-15T14:32:33.117Z,98136.09
2023-03-15T14:37:43.188Z,98147.91
2023-03-15T14:42:46.005Z,98149.72
2023-03-15T14:47:59.300Z,98152.00
2023-03-15T14:53:02.970Z,98162.03
2023-03-15T14:58:14.903Z,98177.66
2023-03-15T15:03:38.811Z,98190.69
2023-03-15T15:08:45.817Z,98195.56
2023-03-15T15:13:48.304Z,98213.09
2023-03-15T15:18:50.756Z,98225.44
2023-03-15T15:24:00.718Z,98239.44
2023-03-15T15:29:03.310Z,98256.28
2023-03-15T15:34:05.824Z,98248.06
2023-03-15T15:39:37.647Z,98243.84
2023-03-15T15:44:40.171Z,98251.81
2023-03-15T15:49:42.592Z,98242.66
2023-03-15T15:54:46.359Z,98251.22
2023-03-15T15:59:49.112Z,98237.50
2023-03-15T16:04:51.937Z,98243.31
2023-03-15T16:09:58.448Z,98255.53
2023-03-15T16:15:00.912Z,98248.19
2023-03-15T16:20:07.491Z,98250.81
2023-03-15T16:25:16.408Z,98252.31
2023-03-15T16:30:33.198Z,98250.97
2023-03-15T16:35:36.636Z,98273.47
2023-03-15T16:40:43.222Z,98275.16
2023-03-15T16:45:46.355Z,98272.56
2023-03-15T16:50:48.881Z,98260.97
2023-03-15T16:55:51.312Z,98260.81
2023-03-15T17:00:54.327Z,98269.47
2023-03-15T17:05:57.222Z,98271.03
2023-03-15T17:10:59.944Z,98272.47
2023-03-15T17:16:02.537Z,98291.53
2023-03-15T17:21:05.883Z,98299.94
2023-03-15T17:26:14.531Z,98302.19
2023-03-15T17:31:24.983Z,98304.63
2023-03-15T17:36:33.076Z,98307.97
2023-03-15T17:41:39.792Z,98312.88
2023-03-15T17:46:43.192Z,98309.44
2023-03-15T17:51:45.942Z,98307.69
2023-03-15T17:56:48.399Z,98311.50
2023-03-15T18:01:51.462Z,98313.25
2023-03-15T18:06:55.521Z,98321.47
2023-03-15T18:11:58.285Z,98319.59
2023-03-15T18:17:00.721Z,98333.72
2023-03-15T18:22:03.557Z,98331.69
2023-03-15T18:27:06.021Z,98342.47
2023-03-15T18:32:09.934Z,98345.16
2023-03-15T18:37:12.416Z,98344.16
2023-03-15T18:42:15.143Z,98345.06
2023-03-15T18:47:17.611Z,98350.53
2023-03-15T18:52:20.106Z,98351.88
2023-03-15T18:57:22.598Z,98352.72
2023-03-15T19:02:25.643Z,98346.44
2023-03-15T19:07:28.381Z,98354.75
2023-03-15T19:12:30.898Z,98350.72
2023-03-15T19:17:33.608Z,98349.16
2023-03-15T19:22:36.154Z,98350.28
2023-03-15T19:27:38.794Z,98358.09
2023-03-15T19:32:42.807Z,98358.44
2023-03-15T19:37:45.695Z,98359.38
2023-03-15T19:42:51.635Z,98368.41
2023-03-15T19:47:54.815Z,98376.13
2023-03-15T19:52:58.512Z,98383.44
2023-03-15T19:58:00.989Z,98383.25
2023-03-15T20:03:03.478Z,98387.88
2023-03-15T20:08:06.193Z,98389.06
2023-03-15T20:13:09.997Z,98391.25
2023-03-15T20:18:14.934Z,98387.34
2023-03-15T20:23:18.692Z,98396.31
2023-03-15T20:28:21.200Z,98398.16
2023-03-15T20:33:23.875Z,98400.75
2023-03-15T20:38:26.668Z,98396.78
2023-03-15T20:43:29.441Z,98400.63
2023-03-15T20:48:35.212Z,98400.94
2023-03-15T20:53:38.333Z,98397.13
2023-03-15T20:58:41.549Z,98404.53
2023-03-15T21:03:45.525Z,98412.22
2023-03-15T21:08:48.152Z,98406.13
2023-03-15T21:13:51.040Z,98406.63
2023-03-15T21:18:54.966Z,98407.81
2023-03-15T21:23:57.642Z,98416.84
2023-03-15T21:29:00.190Z,98406.34
2023-03-15T21:34:02.766Z,98402.38
2023-03-15T21:39:07.577Z,98413.53
2023-03-15T21:44:10.598Z,98416.00
2023-03-15T21:49:13.058Z,98413.41
2023-03-15T21:54:15.595Z,98420.06
2023-03-15T21:59:18.573Z,98413.31
2023-03-15T22:04:21.458Z,98419.66
2023-03-15T22:09:24.308Z,98414.03
2023-03-15T22:14:27.198Z,98413.31
2023-03-15T22:19:29.651Z,98422.00
2023-03-15T22:24:34.072Z,98418.66
2023-03-15T22:29:39.080Z,98419.38
2023-03-15T22:34:41.742Z,98422.16
2023-03-15T22:39:44.230Z,98420.53
2023-03-15T22:44:46.601Z,98428.03
2023-03-15T22:49:49.269Z,98416.78
2023-03-15T22:54:51.796Z,98414.09
2023-03-15T22:59:54.575Z,98419.09
2023-03-15T23:04:57.245Z,98410.13
2023-03-15T23:09:59.815Z,98401.13
2023-03-15T23:15:04.117Z,98398.47
2023-03-15T23:20:07.762Z,98399.53
2023-03-15T23:25:11.396Z,98398.75
2023-03-15T23:30:15.277Z,98398.94
2023-03-15T23:35:18.009Z,98393.13
2023-03-15T23:40:21.324Z,98390.97
2023-03-15T23:45:23.978Z,98384.72
2023-03-15T23:50:27.186Z,98387.09
2023-03-15T23:55:31.193Z,98383.28
